createdAt,value
2023-10-29T00:00:09.742Z,98.40
2023-10-29T00:03:00.939Z,98.40
2023-10-29T00:05:28.948Z,98.50
2023-10-29T00:07:57.165Z,98.90
2023-10-29T00:10:26.522Z,99.00
2023-10-29T00:12:54.398Z,98.90
2023-10-29T00:15:22.567Z,99.00
2023-10-29T00:17:50.778Z,98.90
2023-10-29T00:20:21.106Z,98.90
2023-10-29T00:22:49.986Z,98.80
2023-10-29T00:25:17.882Z,98.80
2023-10-29T00:27:46.347Z,98.80
2023-10-29T00:30:14.427Z,98.80
2023-10-29T00:32:44.362Z,98.80
2023-10-29T00:35:12.269Z,98.70
2023-10-29T00:37:42.696Z,98.90
2023-10-29T00:40:11.275Z,98.90
2023-10-29T00:42:39.704Z,98.90
2023-10-29T00:45:08.855Z,98.80
2023-10-29T00:47:38.674Z,98.80
2023-10-29T00:50:07.036Z,98.70
2023-10-29T00:52:36.348Z,98.70
2023-10-29T00:55:05.697Z,98.70
2023-10-29T00:57:34.122Z,98.90
2023-10-29T01:00:03.354Z,99.00
2023-10-29T01:02:33.095Z,98.90
2023-10-29T01:05:03.038Z,99.00
2023-10-29T01:07:36.069Z,99.10
2023-10-29T01:10:04.226Z,99.10
2023-10-29T01:12:33.538Z,99.20
2023-10-29T01:15:02.122Z,99.40
2023-10-29T01:17:30.437Z,99.70
2023-10-29T01:20:00.354Z,99.80
2023-10-29T01:22:28.659Z,99.90
2023-10-29T01:24:57.107Z,99.90
2023-10-29T01:27:28.225Z,99.90
2023-10-29T01:29:56.006Z,99.90
2023-10-29T01:32:25.253Z,99.90
2023-10-29T01:34:53.120Z,99.90
2023-10-29T01:37:21.224Z,99.90
2023-10-29T01:39:48.976Z,99.90
2023-10-29T01:42:17.578Z,99.80
2023-10-29T01:44:45.392Z,99.70
2023-10-29T01:47:13.978Z,99.50
2023-10-29T01:49:42.103Z,99.40
2023-10-29T01:52:10.351Z,99.20
2023-10-29T01:54:39.509Z,99.10
2023-10-29T01:57:07.860Z,98.90
2023-10-29T01:59:35.778Z,98.60
2023-10-29T02:02:04.347Z,98.40
2023-10-29T02:04:33.670Z,98.20
2023-10-29T02:07:01.952Z,98.20
2023-10-29T02:09:29.738Z,98.20
2023-10-29T02:11:59.413Z,98.30
2023-10-29T02:14:27.335Z,98.40
2023-10-29T02:16:55.349Z,98.40
2023-10-29T02:19:23.249Z,98.50
2023-10-29T02:21:55.484Z,98.60
2023-10-29T02:24:24.614Z,98.60
2023-10-29T02:26:52.877Z,98.70
2023-10-29T02:29:20.646Z,98.80
2023-10-29T02:31:51.190Z,98.80
2023-10-29T02:34:19.066Z,98.90
2023-10-29T02:36:50.231Z,98.90
2023-10-29T02:39:18.676Z,98.80
2023-10-29T02:41:46.840Z,98.60
2023-10-29T02:44:15.818Z,98.40
2023-10-29T02:46:43.941Z,98.30
2023-10-29T02:49:13.622Z,98.20
2023-10-29T02:51:41.793Z,98.20
2023-10-29T02:54:09.495Z,98.30
2023-10-29T02:56:40.420Z,98.40
2023-10-29T02:59:10.826Z,98.50
2023-10-29T03:01:39.387Z,98.60
2023-10-29T03:04:07.783Z,98.60
2023-10-29T03:06:40.477Z,98.70
2023-10-29T03:09:08.267Z,98.90
2023-10-29T03:11:36.259Z,99.00
2023-10-29T03:14:04.137Z,99.10
2023-10-29T03:16:33.735Z,99.30
2023-10-29T03:19:01.548Z,99.30
2023-10-29T03:21:29.561Z,99.20
2023-10-29T03:23:57.474Z,99.10
2023-10-29T03:26:25.615Z,99.10
2023-10-29T03:28:54.197Z,99.10
2023-10-29T03:31:23.332Z,99.10
2023-10-29T03:33:52.451Z,99.20
2023-10-29T03:36:20.390Z,99.20
2023-10-29T03:38:49.728Z,99.20
2023-10-29T03:41:22.696Z,99.20
2023-10-29T03:43:51.045Z,99.20
2023-10-29T03:46:20.676Z,99.20
2023-10-29T03:48:48.487Z,99.30
2023-10-29T03:51:16.689Z,99.40
2023-10-29T03:53:47.220Z,99.40
2023-10-29T03:56:15.391Z,99.50
2023-10-29T03:58:42.963Z,99.40
2023-10-29T04:01:17.504Z,99.30
2023-10-29T04:03:45.868Z,99.40
2023-10-29T04:06:15.510Z,99.40
2023-10-29T04:08:44.294Z,99.30
2023-10-29T04:11:12.724Z,99.30
2023-10-29T04:13:41.419Z,99.30
2023-10-29T04:16:10.191Z,99.40
2023-10-29T04:18:38.175Z,99.30
2023-10-29T04:21:09.169Z,99.30
2023-10-29T04:23:38.146Z,99.30
2023-10-29T04:26:06.369Z,99.20
2023-10-29T04:28:34.436Z,99.00
2023-10-29T04:31:03.225Z,98.80
2023-10-29T04:33:31.169Z,98.70
2023-10-29T04:36:00.295Z,98.60
2023-10-29T04:38:28.807Z,98.40
2023-10-29T04:40:57.072Z,98.40
2023-10-29T04:43:24.896Z,98.50
2023-10-29T04:45:53.171Z,98.60
2023-10-29T04:48:20.927Z,98.70
2023-10-29T04:50:49.043Z,98.80
2023-10-29T04:53:16.934Z,99.00
2023-10-29T04:55:45.658Z,99.20
2023-10-29T04:58:13.443Z,99.20
2023-10-29T05:00:41.627Z,99.30
2023-10-29T05:03:09.636Z,99.10
2023-10-29T05:05:38.043Z,98.80
2023-10-29T05:08:07.995Z,98.50
2023-10-29T05:10:36.727Z,98.40
2023-10-29T05:13:04.461Z,98.40
2023-10-29T05:15:34.141Z,98.50
2023-10-29T05:18:02.225Z,98.70
2023-10-29T05:20:30.539Z,98.70
2023-10-29T05:22:59.074Z,98.70
2023-10-29T05:25:27.128Z,98.80
2023-10-29T05:27:56.105Z,98.80
2023-10-29T05:30:24.599Z,98.80
2023-10-29T05:32:52.607Z,98.50
2023-10-29T05:35:24.084Z,98.70
2023-10-29T05:37:52.930Z,98.90
2023-10-29T05:40:21.204Z,99.10
2023-10-29T05:42:52.043Z,99.20
2023-10-29T05:45:20.166Z,99.30
2023-10-29T05:47:48.356Z,99.40
2023-10-29T05:50:16.581Z,99.30
2023-10-29T05:52:47.422Z,99.20
2023-10-29T05:55:16.518Z,99.10
2023-10-29T05:57:45.514Z,99.10
2023-10-29T06:00:14.225Z,99.00
2023-10-29T06:02:42.543Z,98.90
2023-10-29T06:05:10.955Z,98.70
2023-10-29T06:07:44.432Z,98.50
2023-10-29T06:10:15.197Z,98.30
2023-10-29T06:12:44.019Z,98.30
2023-10-29T06:15:13.418Z,98.30
2023-10-29T06:17:43.438Z,98.30
2023-10-29T06:20:18.576Z,98.20
2023-10-29T06:22:48.322Z,98.30
2023-10-29T06:25:17.951Z,98.50
2023-10-29T06:27:46.437Z,98.80
2023-10-29T06:30:15.282Z,99.00
2023-10-29T06:32:43.312Z,99.10
2023-10-29T06:35:13.467Z,99.10
2023-10-29T06:37:42.725Z,99.20
2023-10-29T06:40:11.186Z,99.30
2023-10-29T06:42:40.386Z,99.50
2023-10-29T06:45:09.143Z,99.70
2023-10-29T06:47:37.104Z,99.90
2023-10-29T06:50:06.578Z,99.90
2023-10-29T06:52:35.757Z,99.90
2023-10-29T06:55:04.772Z,99.90
2023-10-29T06:57:33.378Z,99.90
2023-10-29T07:00:02.138Z,99.90
2023-10-29T07:02:30.611Z,99.90
2023-10-29T07:05:01.118Z,99.90
2023-10-29T07:07:30.849Z,99.70
2023-10-29T07:09:59.053Z,99.70
2023-10-29T07:12:26.944Z,99.70
2023-10-29T07:14:55.317Z,99.90
2023-10-29T07:17:23.337Z,99.90
2023-10-29T07:19:52.813Z,99.90
2023-10-29T07:22:23.832Z,99.90
2023-10-29T07:24:52.529Z,99.90
2023-10-29T07:27:20.241Z,99.90
2023-10-29T07:29:48.608Z,99.80
2023-10-29T07:32:16.573Z,99.60
2023-10-29T07:34:45.629Z,99.60
2023-10-29T07:37:13.942Z,99.80
2023-10-29T07:39:43.149Z,99.90
2023-10-29T07:42:11.332Z,99.90
2023-10-29T07:44:40.634Z,99.90
2023-10-29T07:47:09.841Z,99.90
2023-10-29T07:49:38.983Z,99.90
2023-10-29T07:52:08.287Z,99.90
2023-10-29T07:54:37.953Z,99.90
2023-10-29T07:57:05.907Z,99.70
2023-10-29T07:59:36.721Z,99.90
2023-10-29T08:02:04.443Z,99.90
2023-10-29T08:04:33.901Z,99.90
2023-10-29T08:07:07.380Z,99.90
2023-10-29T08:09:35.890Z,99.90
2023-10-29T08:12:03.796Z,99.90
2023-10-29T08:14:32.014Z,99.90
2023-10-29T08:17:00.556Z,99.90
2023-10-29T08:19:29.040Z,99.90
2023-10-29T08:21:56.908Z,98.80
2023-10-29T08:24:25.078Z,97.80
2023-10-29T08:26:53.042Z,97.90
2023-10-29T08:29:23.693Z,96.20
2023-10-29T08:31:52.891Z,94.40
2023-10-29T08:34:21.074Z,94.00
2023-10-29T08:36:49.031Z,93.60
2023-10-29T08:39:18.249Z,93.50
2023-10-29T08:41:47.404Z,94.30
2023-10-29T08:44:16.063Z,96.20
2023-10-29T08:46:45.128Z,96.20
2023-10-29T08:49:13.580Z,95.70
2023-10-29T08:51:43.444Z,95.50
2023-10-29T08:54:12.442Z,98.10
2023-10-29T08:56:40.426Z,99.90
2023-10-29T08:59:11.009Z,99.90
2023-10-29T09:01:39.014Z,99.20
2023-10-29T09:04:10.727Z,95.90
2023-10-29T09:06:39.448Z,94.50
2023-10-29T09:09:08.484Z,95.50
2023-10-29T09:11:36.473Z,96.30
2023-10-29T09:14:05.109Z,96.50
2023-10-29T09:16:32.845Z,97.90
2023-10-29T09:19:01.343Z,99.10
2023-10-29T09:21:29.345Z,97.10
2023-10-29T09:23:57.732Z,97.10
2023-10-29T09:26:26.065Z,96.90
2023-10-29T09:28:54.362Z,99.60
2023-10-29T09:31:22.766Z,98.60
2023-10-29T09:33:50.935Z,96.80
2023-10-29T09:36:21.185Z,97.20
2023-10-29T09:38:49.791Z,96.80
2023-10-29T09:41:19.534Z,94.10
2023-10-29T09:43:48.168Z,95.30
2023-10-29T09:46:16.064Z,96.00
2023-10-29T09:48:46.005Z,95.90
2023-10-29T09:51:14.140Z,93.50
2023-10-29T09:53:42.778Z,91.70
2023-10-29T09:56:11.545Z,90.50
2023-10-29T09:58:41.646Z,96.20
2023-10-29T10:01:09.964Z,96.80
2023-10-29T10:03:38.792Z,97.40
2023-10-29T10:06:09.851Z,97.40
2023-10-29T10:08:38.097Z,96.40
2023-10-29T10:11:06.426Z,95.20
2023-10-29T10:13:43.173Z,95.10
2023-10-29T10:16:12.844Z,94.40
2023-10-29T10:19:02.050Z,93.50
2023-10-29T10:21:45.148Z,92.00
2023-10-29T10:24:18.475Z,91.20
2023-10-29T10:26:47.725Z,92.80
2023-10-29T10:29:15.872Z,94.20
2023-10-29T10:31:43.747Z,93.70
2023-10-29T10:34:17.112Z,91.00
2023-10-29T10:36:46.315Z,89.60
2023-10-29T10:39:15.035Z,91.10
2023-10-29T10:41:48.132Z,93.90
2023-10-29T10:44:19.102Z,95.40
2023-10-29T10:46:51.895Z,94.10
2023-10-29T10:49:22.132Z,91.90
2023-10-29T10:51:57.059Z,92.20
2023-10-29T10:54:25.783Z,91.70
2023-10-29T10:59:24.963Z,92.90
2023-10-29T11:01:55.229Z,93.80
2023-10-29T11:04:28.060Z,94.80
2023-10-29T11:06:57.542Z,95.20
2023-10-29T11:09:26.181Z,95.40
2023-10-29T11:11:57.941Z,95.80
2023-10-29T11:14:27.791Z,96.60
2023-10-29T11:16:57.688Z,96.20
2023-10-29T11:19:56.043Z,96.00
2023-10-29T11:22:26.515Z,97.10
2023-10-29T11:25:10.276Z,98.20
2023-10-29T11:27:47.695Z,97.50
2023-10-29T11:30:24.059Z,97.70
2023-10-29T11:33:19.633Z,98.70
2023-10-29T11:35:48.447Z,98.90
2023-10-29T11:38:35.641Z,98.60
2023-10-29T11:41:35.061Z,99.40
2023-10-29T11:44:27.055Z,98.90
2023-10-29T11:47:00.944Z,97.40
2023-10-29T11:49:31.043Z,96.80
2023-10-29T11:52:04.153Z,96.90
2023-10-29T11:54:33.920Z,98.00
2023-10-29T11:57:03.462Z,96.60
2023-10-29T11:59:32.434Z,98.40
2023-10-29T12:02:01.419Z,99.80
2023-10-29T12:04:33.772Z,98.70
2023-10-29T12:07:02.229Z,95.30
2023-10-29T12:09:30.085Z,94.10
2023-10-29T12:11:58.216Z,94.50
2023-10-29T12:14:45.137Z,93.00
2023-10-29T12:17:15.920Z,93.50
2023-10-29T12:19:46.364Z,94.40
2023-10-29T12:22:18.861Z,94.50
2023-10-29T12:24:53.255Z,95.30
2023-10-29T12:27:24.355Z,95.70
2023-10-29T12:29:53.160Z,96.10
2023-10-29T12:32:25.990Z,96.50
2023-10-29T12:35:01.377Z,96.70
2023-10-29T12:37:31.880Z,97.10
2023-10-29T12:40:01.714Z,97.10
2023-10-29T12:42:55.787Z,97.10
2023-10-29T12:45:37.058Z,97.30
2023-10-29T12:48:16.576Z,97.30
2023-10-29T12:50:50.204Z,97.20
2023-10-29T12:53:36.623Z,97.50
2023-10-29T12:56:14.994Z,97.70
2023-10-29T12:58:43.386Z,97.90
2023-10-29T13:01:11.331Z,98.20
2023-10-29T13:03:39.535Z,98.20
2023-10-29T13:06:07.491Z,98.20
2023-10-29T13:08:36.089Z,98.00
2023-10-29T13:11:05.187Z,98.00
2023-10-29T13:13:35.939Z,98.40
2023-10-29T13:16:04.172Z,98.30
2023-10-29T13:18:32.439Z,98.20
2023-10-29T13:21:01.222Z,98.40
2023-10-29T13:23:29.947Z,98.50
2023-10-29T13:25:57.987Z,98.30
2023-10-29T13:28:26.198Z,98.70
2023-10-29T13:30:56.775Z,98.60
2023-10-29T13:33:27.380Z,98.70
2023-10-29T13:35:55.377Z,98.60
2023-10-29T13:38:25.795Z,98.70
2023-10-29T13:40:53.626Z,98.40
2023-10-29T13:43:22.375Z,98.90
2023-10-29T13:46:03.754Z,98.70
2023-10-29T13:48:32.970Z,98.20
2023-10-29T13:51:06.206Z,98.30
2023-10-29T13:53:35.207Z,98.60
2023-10-29T13:56:11.132Z,98.90
2023-10-29T13:58:40.228Z,99.10
2023-10-29T14:01:24.608Z,99.00
2023-10-29T14:03:53.900Z,98.80
2023-10-29T14:06:23.950Z,98.50
2023-10-29T14:08:53.045Z,98.50
2023-10-29T14:11:21.510Z,98.70
2023-10-29T14:13:51.299Z,98.70
2023-10-29T14:16:20.041Z,98.70
2023-10-29T14:18:49.006Z,98.60
2023-10-29T14:21:17.302Z,98.40
2023-10-29T14:23:45.986Z,98.20
2023-10-29T14:26:13.992Z,98.30
2023-10-29T14:28:42.903Z,98.30
2023-10-29T14:31:11.693Z,98.40
2023-10-29T14:33:40.103Z,98.40
2023-10-29T14:36:08.806Z,98.70
2023-10-29T14:38:37.258Z,98.70
2023-10-29T14:41:07.136Z,98.60
2023-10-29T14:43:35.785Z,98.60
2023-10-29T14:46:05.014Z,98.50
2023-10-29T14:48:34.619Z,98.70
2023-10-29T14:51:07.133Z,98.50
2023-10-29T14:53:35.597Z,98.70
2023-10-29T14:56:03.825Z,98.80
2023-10-29T14:58:31.844Z,98.80
2023-10-29T15:01:04.799Z,98.70
2023-10-29T15:03:34.694Z,98.90
2023-10-29T15:06:10.759Z,98.80
2023-10-29T15:08:39.994Z,98.70
2023-10-29T15:11:08.402Z,98.60
2023-10-29T15:13:46.301Z,98.50
2023-10-29T15:16:16.585Z,98.20
2023-10-29T15:18:45.176Z,98.50
2023-10-29T15:21:17.866Z,98.50
2023-10-29T15:23:46.175Z,98.40
2023-10-29T15:26:16.232Z,98.50
2023-10-29T15:28:45.117Z,98.70
2023-10-29T15:31:13.659Z,98.50
2023-10-29T15:33:42.029Z,98.40
2023-10-29T15:36:12.047Z,98.30
2023-10-29T15:38:46.852Z,98.50
2023-10-29T15:41:17.107Z,98.40
2023-10-29T15:43:45.610Z,98.70
2023-10-29T15:46:15.150Z,98.70
2023-10-29T15:48:43.401Z,98.60
2023-10-29T15:51:12.695Z,98.80
2023-10-29T15:53:41.581Z,98.80
2023-10-29T15:56:11.641Z,98.90
2023-10-29T15:58:42.630Z,98.90
2023-10-29T16:01:21.088Z,98.40
2023-10-29T16:03:50.421Z,98.50
2023-10-29T16:06:20.671Z,98.40
2023-10-29T16:08:50.991Z,98.30
2023-10-29T16:11:25.300Z,98.20
2023-10-29T16:14:00.210Z,98.20
2023-10-29T16:16:31.623Z,98.10
2023-10-29T16:19:03.180Z,98.50
2023-10-29T16:21:33.591Z,98.50
2023-10-29T16:24:03.395Z,98.60
2023-10-29T16:26:36.220Z,98.70
2023-10-29T16:29:05.977Z,98.60
2023-10-29T16:31:36.051Z,98.60
2023-10-29T16:34:05.811Z,98.70
2023-10-29T16:36:35.137Z,98.70
2023-10-29T16:39:04.484Z,98.40
2023-10-29T16:41:35.343Z,98.20
2023-10-29T16:44:05.255Z,98.20
2023-10-29T16:46:35.413Z,98.40
2023-10-29T16:49:05.573Z,98.50
2023-10-29T16:51:35.926Z,97.50
2023-10-29T16:54:07.368Z,97.90
2023-10-29T16:56:37.951Z,98.40
2023-10-29T16:59:08.542Z,98.60
2023-10-29T17:01:39.871Z,98.40
2023-10-29T17:04:08.930Z,98.50
2023-10-29T17:06:40.694Z,98.20
2023-10-29T17:09:12.537Z,98.30
2023-10-29T17:11:45.647Z,98.30
2023-10-29T17:14:18.428Z,98.30
2023-10-29T17:16:51.279Z,98.10
2023-10-29T17:19:22.733Z,98.00
2023-10-29T17:21:52.324Z,98.20
2023-10-29T17:24:26.897Z,98.70
2023-10-29T17:27:00.406Z,98.70
2023-10-29T17:29:29.336Z,98.50
2023-10-29T17:32:01.389Z,98.60
2023-10-29T17:34:34.930Z,98.60
2023-10-29T17:37:07.539Z,98.80
2023-10-29T17:39:39.940Z,98.80
2023-10-29T17:42:10.172Z,98.80
2023-10-29T17:44:43.177Z,98.70
2023-10-29T17:47:12.266Z,98.70
2023-10-29T17:49:44.012Z,98.70
2023-10-29T17:52:14.016Z,98.70
2023-10-29T17:54:45.148Z,98.80
2023-10-29T17:57:16.862Z,98.90
2023-10-29T17:59:45.481Z,98.90
2023-10-29T18:02:19.139Z,99.00
2023-10-29T18:04:49.014Z,98.90
2023-10-29T18:07:22.044Z,98.90
2023-10-29T18:09:52.149Z,98.90
2023-10-29T18:12:22.323Z,98.90
2023-10-29T18:14:54.771Z,98.80
2023-10-29T18:17:29.474Z,98.60
2023-10-29T18:20:03.546Z,98.40
2023-10-29T18:22:33.679Z,98.30
2023-10-29T18:25:02.583Z,98.20
2023-10-29T18:27:37.540Z,98.20
2023-10-29T18:30:12.423Z,98.20
2023-10-29T18:32:47.162Z,98.20
2023-10-29T18:35:16.395Z,98.30
2023-10-29T18:37:51.142Z,98.20
2023-10-29T18:40:21.152Z,98.10
2023-10-29T18:42:53.944Z,98.10
2023-10-29T18:45:25.866Z,98.10
2023-10-29T18:47:56.480Z,98.10
2023-10-29T18:50:27.494Z,98.00
2023-10-29T18:53:00.862Z,97.80
2023-10-29T18:55:31.967Z,97.80
2023-10-29T18:58:00.911Z,97.70
2023-10-29T19:00:30.216Z,97.80
2023-10-29T19:03:04.312Z,97.90
2023-10-29T19:05:35.694Z,98.10
2023-10-29T19:08:08.559Z,98.20
2023-10-29T19:10:38.618Z,98.20
2023-10-29T19:13:11.650Z,98.20
2023-10-29T19:15:41.944Z,98.00
2023-10-29T19:18:12.247Z,98.00
2023-10-29T19:20:43.380Z,97.90
2023-10-29T19:23:15.526Z,98.10
2023-10-29T19:25:45.078Z,98.30
2023-10-29T19:28:15.263Z,98.40
2023-10-29T19:30:55.581Z,98.30
2023-10-29T19:33:37.056Z,98.30
2023-10-29T19:36:14.391Z,98.20
2023-10-29T19:38:44.620Z,98.20
2023-10-29T19:41:13.852Z,98.20
2023-10-29T19:43:44.054Z,98.00
2023-10-29T19:46:14.546Z,97.90
2023-10-29T19:48:44.665Z,97.70
2023-10-29T19:51:15.425Z,97.60
2023-10-29T19:53:45.286Z,97.50
2023-10-29T19:56:14.485Z,97.30
2023-10-29T19:58:51.083Z,97.50
2023-10-29T20:01:21.752Z,97.60
2023-10-29T20:03:53.938Z,97.60
2023-10-29T20:06:25.234Z,97.70
2023-10-29T20:08:58.374Z,97.70
2023-10-29T20:11:30.866Z,97.70
2023-10-29T20:14:03.800Z,97.90
2023-10-29T20:16:33.711Z,98.40
2023-10-29T20:19:04.996Z,98.30
2023-10-29T20:21:38.534Z,98.20
2023-10-29T20:24:09.933Z,98.20
2023-10-29T20:26:42.448Z,98.40
2023-10-29T20:29:13.521Z,98.30
2023-10-29T20:31:45.003Z,98.30
2023-10-29T20:34:16.707Z,98.40
2023-10-29T20:36:45.938Z,98.20
2023-10-29T20:39:15.599Z,98.10
2023-10-29T20:41:45.124Z,98.20
2023-10-29T20:44:15.934Z,98.20
2023-10-29T20:46:45.935Z,98.30
2023-10-29T20:49:17.780Z,98.20
2023-10-29T20:51:47.188Z,98.30
2023-10-29T20:54:17.461Z,98.30
2023-10-29T20:56:45.770Z,98.50
2023-10-29T20:59:15.161Z,98.50
2023-10-29T21:01:43.385Z,98.40
2023-10-29T21:04:13.338Z,98.50
2023-10-29T21:06:41.922Z,98.50
2023-10-29T21:09:11.950Z,98.20
2023-10-29T21:11:40.219Z,98.00
2023-10-29T21:14:09.190Z,97.80
2023-10-29T21:16:37.062Z,97.70
2023-10-29T21:19:08.271Z,97.50
2023-10-29T21:21:36.197Z,97.60
2023-10-29T21:24:06.348Z,97.80
2023-10-29T21:26:35.882Z,97.90
2023-10-29T21:29:04.304Z,97.80
2023-10-29T21:31:32.547Z,97.70
2023-10-29T21:34:01.137Z,96.60
2023-10-29T21:36:29.176Z,95.90
2023-10-29T21:38:57.336Z,95.80
2023-10-29T21:41:28.707Z,95.80
2023-10-29T21:43:58.436Z,95.80
2023-10-29T21:46:28.308Z,95.90
2023-10-29T21:48:57.447Z,95.90
2023-10-29T21:51:25.727Z,95.90
2023-10-29T21:53:54.123Z,96.00
2023-10-29T21:56:21.915Z,96.40
2023-10-29T21:58:50.553Z,96.70
2023-10-29T22:01:23.303Z,96.60
2023-10-29T22:03:52.357Z,96.40
2023-10-29T22:06:22.367Z,96.30
2023-10-29T22:08:51.441Z,96.10
2023-10-29T22:11:19.390Z,95.90
2023-10-29T22:13:47.683Z,96.30
2023-10-29T22:16:16.261Z,97.20
2023-10-29T22:18:44.725Z,97.60
2023-10-29T22:21:13.713Z,98.10
2023-10-29T22:23:43.134Z,98.50
2023-10-29T22:26:10.919Z,98.40
2023-10-29T22:28:39.178Z,98.20
2023-10-29T22:31:08.702Z,98.30
2023-10-29T22:33:37.140Z,98.30
2023-10-29T22:36:07.258Z,98.30
2023-10-29T22:38:35.700Z,98.20
2023-10-29T22:41:13.563Z,97.90
2023-10-29T22:43:42.068Z,97.80
2023-10-29T22:46:22.338Z,97.30
2023-10-29T22:48:51.840Z,97.10
2023-10-29T22:51:20.140Z,97.00
2023-10-29T22:53:48.500Z,97.20
2023-10-29T22:56:17.144Z,97.50
2023-10-29T22:58:45.321Z,97.80
2023-10-29T23:01:15.921Z,97.90
2023-10-29T23:03:45.788Z,98.00
2023-10-29T23:06:14.336Z,97.90
2023-10-29T23:08:43.489Z,98.00
2023-10-29T23:11:18.646Z,97.80
2023-10-29T23:13:48.468Z,97.70
2023-10-29T23:16:17.489Z,97.50
2023-10-29T23:18:45.995Z,97.50
2023-10-29T23:21:13.930Z,97.80
2023-10-29T23:23:44.834Z,97.90
2023-10-29T23:29:24.210Z,98.00
2023-10-29T23:31:52.114Z,97.60
2023-10-29T23:34:20.390Z,97.50
2023-10-29T23:36:48.222Z,97.60
2023-10-29T23:39:16.242Z,97.80
2023-10-29T23:41:45.107Z,97.90
2023-10-29T23:44:13.611Z,98.00
2023-10-29T23:46:41.396Z,98.20
2023-10-29T23:49:09.836Z,98.20
2023-10-29T23:51:37.566Z,98.40
2023-10-29T23:54:05.908Z,98.20
2023-10-29T23:56:33.963Z,98.20
2023-10-29T23:59:01.703Z,98.20
